createdAt,value
2019-06-07T00:02:26.482Z,22.60
2019-06-07T00:04:53.107Z,22.60
2019-06-07T00:07:21.798Z,22.60
2019-06-07T00:09:48.116Z,22.60
2019-06-07T00:12:16.902Z,22.50
2019-06-07T00:14:42.987Z,22.40
2019-06-07T00:17:12.490Z,22.40
2019-06-07T00:19:38.225Z,22.40
2019-06-07T00:22:32.524Z,22.30
2019-06-07T00:24:33.753Z,22.40
2019-06-07T00:27:01.198Z,22.50
2019-06-07T00:29:27.658Z,22.50
2019-06-07T00:31:54.172Z,22.40
2019-06-07T00:34:23.170Z,22.40
2019-06-07T00:36:49.323Z,22.40
2019-06-07T00:39:20.277Z,22.40
2019-06-07T00:41:44.115Z,22.40
2019-06-07T00:44:10.679Z,22.30
2019-06-07T00:46:37.308Z,22.20
2019-06-07T00:49:03.814Z,22.10
2019-06-07T00:51:49.582Z,22.10
2019-06-07T00:53:58.794Z,22.00
2019-06-07T00:56:25.367Z,22.00
2019-06-07T00:59:10.271Z,22.00
2019-06-07T01:01:23.334Z,22.00
2019-06-07T01:03:49.361Z,22.00
2019-06-07T01:06:17.492Z,22.00
2019-06-07T01:08:44.318Z,22.00
2019-06-07T01:11:11.359Z,22.10
2019-06-07T01:13:37.965Z,22.00
2019-06-07T01:16:04.573Z,21.90
2019-06-07T01:18:39.004Z,21.80
2019-06-07T01:20:59.558Z,21.80
2019-06-07T01:25:54.572Z,21.70
2019-06-07T01:28:26.332Z,21.70
2019-06-07T01:30:51.118Z,21.80
2019-06-07T01:33:18.335Z,21.80
2019-06-07T01:35:45.202Z,21.80
2019-06-07T01:38:12.240Z,21.80
2019-06-07T01:40:38.714Z,21.80
2019-06-07T01:43:05.332Z,21.70
2019-06-07T01:45:31.930Z,21.70
2019-06-07T01:47:58.614Z,21.70
2019-06-07T01:50:27.042Z,21.60
2019-06-07T01:52:53.526Z,21.50
2019-06-07T01:55:23.684Z,21.50
2019-06-07T01:57:48.733Z,21.50
2019-06-07T02:00:17.428Z,21.50
2019-06-07T02:02:44.318Z,21.40
2019-06-07T02:05:11.530Z,21.30
2019-06-07T02:07:38.141Z,21.40
2019-06-07T02:10:05.876Z,21.40
2019-06-07T02:12:42.358Z,21.30
2019-06-07T02:15:00.967Z,21.40
2019-06-07T02:17:30.145Z,21.40
2019-06-07T02:19:55.931Z,21.40
2019-06-07T02:22:23.640Z,21.30
2019-06-07T02:25:33.901Z,21.00
2019-06-07T02:27:20.431Z,20.70
2019-06-07T02:29:47.398Z,20.70
2019-06-07T02:32:16.310Z,20.90
2019-06-07T02:34:42.820Z,20.70
2019-06-07T02:37:09.495Z,20.40
2019-06-07T02:39:40.481Z,20.40
2019-06-07T02:42:04.527Z,20.30
2019-06-07T02:44:35.949Z,20.00
2019-06-07T02:46:59.520Z,20.10
2019-06-07T02:49:28.936Z,20.30
2019-06-07T02:51:54.312Z,20.00
2019-06-07T02:54:21.380Z,20.00
2019-06-07T02:56:58.050Z,20.20
2019-06-07T02:59:16.551Z,20.30
2019-06-07T03:01:43.562Z,20.30
2019-06-07T03:04:12.984Z,20.20
2019-06-07T03:06:43.903Z,20.20
2019-06-07T03:09:09.211Z,20.20
2019-06-07T03:11:39.438Z,20.10
2019-06-07T03:14:06.580Z,20.20
2019-06-07T03:16:45.112Z,20.10
2019-06-07T03:19:13.702Z,20.20
2019-06-07T03:21:42.078Z,20.20
2019-06-07T03:24:08.686Z,20.30
2019-06-07T03:27:23.332Z,20.30
2019-06-07T03:29:03.760Z,20.40
2019-06-07T03:31:32.677Z,20.30
2019-06-07T03:33:58.750Z,20.30
2019-06-07T03:36:26.058Z,20.20
2019-06-07T03:38:53.040Z,20.10
2019-06-07T03:41:19.609Z,20.10
2019-06-07T03:43:46.026Z,20.10
2019-06-07T03:46:12.595Z,20.20
2019-06-07T03:48:41.269Z,20.30
2019-06-07T03:51:24.246Z,20.40
2019-06-07T03:53:37.334Z,20.50
2019-06-07T03:56:04.472Z,20.60
2019-06-07T03:58:34.711Z,20.60
2019-06-07T04:01:02.042Z,20.60
2019-06-07T04:03:36.191Z,20.60
2019-06-07T04:05:57.859Z,20.60
2019-06-07T04:08:24.406Z,20.60
2019-06-07T04:10:59.787Z,20.70
2019-06-07T04:13:19.243Z,20.80
2019-06-07T04:15:45.844Z,20.90
2019-06-07T04:18:12.401Z,20.90
2019-06-07T04:20:41.323Z,20.90
2019-06-07T04:23:27.263Z,21.00
2019-06-07T04:25:39.507Z,21.00
2019-06-07T04:28:07.529Z,21.00
2019-06-07T04:30:38.827Z,21.10
2019-06-07T04:33:05.667Z,21.10
2019-06-07T04:35:34.850Z,21.20
2019-06-07T04:38:01.644Z,21.10
2019-06-07T04:40:30.660Z,21.10
2019-06-07T04:42:59.646Z,21.20
2019-06-07T04:45:38.351Z,21.20
2019-06-07T04:48:00.788Z,21.20
2019-06-07T04:50:33.839Z,21.20
2019-06-07T04:52:58.654Z,21.20
2019-06-07T04:55:25.269Z,21.30
2019-06-07T04:57:51.721Z,21.40
2019-06-07T05:00:56.374Z,21.50
2019-06-07T05:03:05.098Z,21.50
2019-06-07T05:05:34.287Z,21.50
2019-06-07T05:08:07.201Z,21.50
2019-06-07T05:10:30.627Z,21.50
2019-06-07T05:12:57.833Z,21.50
2019-06-07T05:15:25.476Z,21.50
2019-06-07T05:17:52.133Z,21.40
2019-06-07T05:20:18.745Z,21.40
2019-06-07T05:22:45.561Z,21.30
2019-06-07T05:25:13.334Z,21.30
2019-06-07T05:27:46.279Z,21.30
2019-06-07T05:30:50.319Z,21.40
2019-06-07T05:32:43.679Z,21.40
2019-06-07T05:35:09.801Z,21.40
2019-06-07T05:37:38.218Z,21.40
2019-06-07T05:40:06.790Z,21.40
2019-06-07T05:42:36.849Z,21.50
2019-06-07T05:45:01.863Z,21.60
2019-06-07T05:47:28.718Z,21.60
2019-06-07T05:49:55.297Z,21.70
2019-06-07T05:52:22.052Z,21.90
2019-06-07T05:54:48.475Z,22.00
2019-06-07T05:57:14.885Z,22.10
2019-06-07T05:59:44.262Z,22.10
2019-06-07T06:02:22.098Z,22.00
2019-06-07T06:04:40.243Z,22.00
2019-06-07T06:07:06.471Z,22.00
2019-06-07T06:09:35.328Z,22.00
2019-06-07T06:12:02.488Z,22.00
2019-06-07T06:14:29.704Z,22.00
2019-06-07T06:16:56.326Z,22.00
2019-06-07T06:19:22.940Z,22.00
2019-06-07T06:21:49.575Z,22.00
2019-06-07T06:24:16.106Z,22.00
2019-06-07T06:26:50.919Z,22.00
2019-06-07T06:29:11.050Z,22.00
2019-06-07T06:31:38.006Z,22.10
2019-06-07T06:34:06.025Z,22.10
2019-06-07T06:36:32.648Z,22.10
2019-06-07T06:38:59.198Z,22.10
2019-06-07T06:41:25.794Z,22.10
2019-06-07T06:43:52.967Z,22.20
2019-06-07T06:46:37.447Z,22.20
2019-06-07T06:48:54.499Z,22.30
2019-06-07T06:51:16.678Z,22.30
2019-06-07T06:53:43.892Z,22.40
2019-06-07T06:56:11.656Z,22.40
2019-06-07T06:59:22.514Z,22.40
2019-06-07T07:01:07.250Z,22.40
2019-06-07T07:03:57.517Z,22.40
2019-06-07T07:06:24.569Z,22.40
2019-06-07T07:08:34.003Z,22.50
2019-06-07T07:11:01.476Z,22.50
2019-06-07T07:13:27.987Z,22.40
2019-06-07T07:15:57.905Z,22.50
2019-06-07T07:18:23.872Z,22.50
2019-06-07T07:20:55.181Z,22.50
2019-06-07T07:23:18.710Z,22.60
2019-06-07T07:25:49.422Z,22.70
2019-06-07T07:28:13.962Z,22.60
2019-06-07T07:30:44.891Z,22.70
2019-06-07T07:33:11.723Z,22.70
2019-06-07T07:35:39.331Z,22.70
2019-06-07T07:38:05.987Z,22.80
2019-06-07T07:40:56.872Z,22.70
2019-06-07T07:43:00.928Z,22.80
2019-06-07T07:45:27.385Z,22.90
2019-06-07T07:48:08.343Z,22.90
2019-06-07T07:50:22.489Z,23.00
2019-06-07T07:52:53.450Z,23.10
2019-06-07T07:55:17.365Z,23.20
2019-06-07T07:57:46.637Z,23.20
2019-06-07T08:00:49.671Z,23.30
2019-06-07T08:02:41.007Z,23.40
2019-06-07T08:05:21.073Z,23.40
2019-06-07T08:07:36.094Z,23.50
2019-06-07T08:10:06.739Z,23.60
2019-06-07T08:12:55.686Z,23.70
2019-06-07T08:15:03.539Z,23.70
2019-06-07T08:17:30.968Z,23.80
2019-06-07T08:19:57.760Z,23.80
2019-06-07T08:22:25.182Z,23.90
2019-06-07T08:24:53.340Z,24.00
2019-06-07T08:27:26.251Z,24.10
2019-06-07T08:30:07.849Z,24.10
2019-06-07T08:32:17.021Z,24.10
2019-06-07T08:34:43.549Z,24.10
2019-06-07T08:37:10.082Z,24.00
2019-06-07T08:39:36.603Z,24.00
2019-06-07T08:42:15.545Z,24.10
2019-06-07T08:44:32.563Z,24.30
2019-06-07T08:47:18.405Z,24.30
2019-06-07T08:49:27.650Z,24.40
2019-06-07T08:52:04.562Z,24.50
2019-06-07T08:54:23.578Z,24.60
2019-06-07T08:56:52.737Z,24.70
2019-06-07T08:59:18.850Z,24.70
2019-06-07T09:01:45.403Z,24.70
2019-06-07T09:04:12.021Z,24.80
2019-06-07T09:07:02.401Z,24.90
2019-06-07T09:09:07.520Z,25.00
2019-06-07T09:11:34.153Z,25.10
2019-06-07T09:14:05.358Z,25.20
2019-06-07T09:16:29.126Z,25.30
2019-06-07T09:18:58.412Z,25.30
2019-06-07T09:21:24.075Z,25.30
2019-06-07T09:23:50.861Z,25.30
2019-06-07T09:26:19.106Z,25.30
2019-06-07T09:28:46.400Z,25.40
2019-06-07T09:31:13.096Z,25.40
2019-06-07T09:33:40.087Z,25.50
2019-06-07T09:36:10.281Z,25.40
2019-06-07T09:38:35.499Z,25.30
2019-06-07T09:41:03.162Z,25.10
2019-06-07T09:44:00.573Z,25.00
2019-06-07T09:46:01.077Z,25.00
2019-06-07T09:49:09.254Z,25.10
2019-06-07T09:50:55.339Z,25.10
2019-06-07T09:53:24.017Z,25.40
2019-06-07T09:55:50.680Z,25.50
2019-06-07T09:58:50.534Z,25.60
2019-06-07T10:00:45.547Z,25.70
2019-06-07T10:03:20.174Z,25.90
2019-06-07T10:05:40.544Z,26.00
2019-06-07T10:08:25.784Z,26.10
2019-06-07T10:10:35.630Z,26.10
2019-06-07T10:13:03.791Z,26.20
2019-06-07T10:15:30.610Z,26.40
2019-06-07T10:17:58.553Z,26.50
2019-06-07T10:20:25.334Z,26.70
2019-06-07T10:22:51.972Z,26.70
2019-06-07T10:25:18.715Z,26.70
2019-06-07T10:27:45.155Z,26.60
2019-06-07T10:30:11.849Z,26.60
2019-06-07T10:32:38.527Z,26.50
2019-06-07T10:35:07.124Z,26.40
2019-06-07T10:37:33.646Z,26.20
2019-06-07T10:40:00.619Z,26.10
2019-06-07T10:42:27.236Z,26.00
2019-06-07T10:44:53.708Z,26.00
2019-06-07T10:47:20.342Z,26.00
2019-06-07T10:49:48.833Z,25.90
2019-06-07T10:52:15.474Z,25.90
2019-06-07T10:54:42.227Z,25.90
2019-06-07T10:57:12.190Z,26.10
2019-06-07T10:59:37.168Z,26.30
2019-06-07T11:02:03.838Z,26.70
2019-06-07T11:04:30.448Z,26.90
2019-06-07T11:06:56.972Z,27.00
2019-06-07T11:09:23.425Z,27.00
2019-06-07T11:11:49.827Z,27.10
2019-06-07T11:14:16.533Z,27.20
2019-06-07T11:16:43.117Z,27.30
2019-06-07T11:19:13.906Z,27.60
2019-06-07T11:21:38.089Z,27.70
2019-06-07T11:24:06.041Z,27.90
2019-06-07T11:26:33.249Z,27.90
2019-06-07T11:28:59.799Z,28.10
2019-06-07T11:31:26.381Z,28.40
2019-06-07T11:33:53.037Z,28.40
2019-06-07T11:36:19.582Z,28.70
2019-06-07T11:38:46.183Z,28.90
2019-06-07T11:41:13.548Z,29.10
2019-06-07T11:43:40.164Z,29.20
2019-06-07T11:46:06.787Z,29.00
2019-06-07T11:48:33.981Z,28.70
2019-06-07T11:51:00.938Z,28.70
2019-06-07T11:53:27.354Z,28.90
2019-06-07T11:55:54.442Z,29.10
2019-06-07T11:58:21.890Z,29.20
2019-06-07T12:00:49.084Z,29.30
2019-06-07T12:03:15.952Z,29.50
2019-06-07T12:05:42.895Z,29.40
2019-06-07T12:08:10.041Z,29.20
2019-06-07T12:10:42.517Z,29.00
2019-06-07T12:13:05.598Z,29.20
2019-06-07T12:15:32.213Z,29.20
2019-06-07T12:17:58.672Z,28.80
2019-06-07T12:20:25.706Z,28.60
2019-06-07T12:22:52.242Z,28.50
2019-06-07T12:25:24.432Z,28.30
2019-06-07T12:27:47.663Z,28.40
2019-06-07T12:30:22.515Z,28.70
2019-06-07T12:32:42.694Z,28.90
2019-06-07T12:35:11.346Z,29.00
2019-06-07T12:37:44.499Z,28.80
2019-06-07T12:40:07.136Z,28.70
2019-06-07T12:42:33.532Z,29.00
2019-06-07T12:45:00.137Z,29.20
2019-06-07T12:47:26.654Z,29.20
2019-06-07T12:49:53.280Z,29.10
2019-06-07T12:52:22.486Z,29.10
2019-06-07T12:54:48.231Z,29.00
2019-06-07T12:57:16.244Z,28.80
2019-06-07T12:59:42.998Z,28.80
2019-06-07T13:02:09.502Z,28.90
2019-06-07T13:04:36.085Z,29.10
2019-06-07T13:07:02.800Z,29.00
2019-06-07T13:09:29.401Z,29.00
2019-06-07T13:11:56.437Z,29.00
2019-06-07T13:14:24.010Z,29.10
2019-06-07T13:16:50.920Z,29.10
2019-06-07T13:19:18.056Z,29.20
2019-06-07T13:21:44.808Z,29.40
2019-06-07T13:24:11.365Z,29.50
2019-06-07T13:26:37.880Z,29.40
2019-06-07T13:29:04.544Z,29.50
2019-06-07T13:31:31.055Z,29.40
2019-06-07T13:34:00.384Z,29.20
2019-06-07T13:36:26.931Z,28.70
2019-06-07T13:38:53.548Z,28.50
2019-06-07T13:41:35.214Z,28.30
2019-06-07T13:43:51.498Z,28.10
2019-06-07T13:46:17.031Z,27.80
2019-06-07T13:48:43.919Z,27.50
2019-06-07T13:51:10.582Z,27.40
2019-06-07T13:53:37.141Z,27.30
2019-06-07T13:56:03.749Z,27.20
2019-06-07T13:58:30.318Z,27.10
2019-06-07T14:00:56.819Z,27.00
2019-06-07T14:03:27.249Z,26.90
2019-06-07T14:05:51.724Z,26.80
2019-06-07T14:08:19.030Z,26.70
2019-06-07T14:10:45.888Z,26.60
2019-06-07T14:13:12.423Z,26.80
2019-06-07T14:15:39.489Z,27.10
2019-06-07T14:18:06.095Z,27.50
2019-06-07T14:20:34.574Z,27.60
2019-06-07T14:23:01.123Z,27.90
2019-06-07T14:25:29.258Z,27.90
2019-06-07T14:27:56.329Z,28.00
2019-06-07T14:30:23.973Z,28.10
2019-06-07T14:32:50.970Z,28.20
2019-06-07T14:35:17.732Z,28.20
2019-06-07T14:37:44.348Z,28.40
2019-06-07T14:40:11.866Z,28.50
2019-06-07T14:42:38.434Z,28.70
2019-06-07T14:45:09.862Z,28.70
2019-06-07T14:47:36.704Z,28.70
2019-06-07T14:50:07.896Z,28.80
2019-06-07T14:52:35.120Z,28.90
2019-06-07T14:55:03.596Z,28.90
2019-06-07T14:57:31.109Z,28.80
2019-06-07T14:59:57.777Z,29.00
2019-06-07T15:02:24.295Z,28.90
2019-06-07T15:04:51.996Z,29.00
2019-06-07T15:07:18.517Z,29.00
2019-06-07T15:09:45.140Z,28.90
2019-06-07T15:12:24.162Z,28.70
2019-06-07T15:14:40.006Z,28.60
2019-06-07T15:17:07.724Z,28.60
2019-06-07T15:19:36.252Z,28.60
2019-06-07T15:22:02.757Z,28.60
2019-06-07T15:24:33.538Z,28.50
2019-06-07T15:26:57.582Z,28.50
2019-06-07T15:29:24.205Z,28.50
2019-06-07T15:31:50.784Z,28.50
2019-06-07T15:34:17.393Z,28.40
2019-06-07T15:36:43.926Z,28.40
2019-06-07T15:39:10.555Z,28.40
2019-06-07T15:41:37.425Z,28.40
2019-06-07T15:44:04.539Z,28.40
2019-06-07T15:46:31.488Z,28.40
2019-06-07T15:48:58.354Z,28.50
2019-06-07T15:51:24.989Z,28.60
2019-06-07T15:53:51.628Z,28.50
2019-06-07T15:56:18.213Z,28.50
2019-06-07T15:58:44.623Z,28.50
2019-06-07T16:01:11.266Z,28.50
2019-06-07T16:03:38.076Z,28.50
2019-06-07T16:06:05.068Z,28.50
2019-06-07T16:08:32.296Z,28.50
2019-06-07T16:10:59.148Z,28.50
2019-06-07T16:13:25.689Z,28.40
2019-06-07T16:15:52.341Z,28.40
2019-06-07T16:18:19.266Z,28.40
2019-06-07T16:20:45.924Z,28.30
2019-06-07T16:23:12.437Z,28.30
2019-06-07T16:25:40.117Z,28.30
2019-06-07T16:28:06.934Z,28.30
2019-06-07T16:30:34.306Z,28.30
2019-06-07T16:33:01.172Z,28.30
2019-06-07T16:35:27.731Z,28.20
2019-06-07T16:37:54.358Z,28.10
2019-06-07T16:40:20.978Z,28.10
2019-06-07T16:42:48.961Z,28.10
2019-06-07T16:45:16.261Z,28.00
2019-06-07T16:47:45.271Z,28.00
2019-06-07T16:50:12.359Z,27.90
2019-06-07T16:52:39.219Z,27.80
2019-06-07T16:55:06.603Z,27.80
2019-06-07T16:57:33.173Z,27.80
2019-06-07T16:59:59.695Z,27.60
2019-06-07T17:02:26.188Z,27.60
2019-06-07T17:04:52.861Z,27.50
2019-06-07T17:07:19.469Z,27.40
2019-06-07T17:09:47.785Z,27.30
2019-06-07T17:12:14.565Z,27.20
2019-06-07T17:14:42.400Z,27.20
2019-06-07T17:17:09.523Z,27.20
2019-06-07T17:19:36.238Z,27.10
2019-06-07T17:22:02.867Z,27.10
2019-06-07T17:24:29.304Z,27.00
2019-06-07T17:26:55.841Z,27.00
2019-06-07T17:29:22.461Z,27.00
2019-06-07T17:31:50.268Z,27.00
2019-06-07T17:34:17.756Z,26.90
2019-06-07T17:36:44.907Z,26.90
2019-06-07T17:39:11.685Z,27.00
2019-06-07T17:41:52.418Z,26.90
2019-06-07T17:44:06.813Z,26.80
2019-06-07T17:46:33.303Z,26.70
2019-06-07T17:48:59.860Z,26.70
2019-06-07T17:51:26.474Z,26.60
2019-06-07T17:53:52.879Z,26.60
2019-06-07T17:56:19.429Z,26.50
2019-06-07T17:58:46.418Z,26.40
2019-06-07T18:01:13.541Z,26.40
2019-06-07T18:03:40.171Z,26.30
2019-06-07T18:06:06.799Z,26.20
2019-06-07T18:08:34.176Z,26.20
2019-06-07T18:11:00.595Z,26.20
2019-06-07T18:13:27.555Z,26.10
2019-06-07T18:15:58.978Z,26.10
2019-06-07T18:18:22.506Z,26.10
2019-06-07T18:20:49.303Z,26.00
2019-06-07T18:23:16.002Z,26.00
2019-06-07T18:25:42.619Z,25.90
2019-06-07T18:28:09.453Z,25.90
2019-06-07T18:30:36.920Z,25.80
2019-06-07T18:33:04.355Z,25.80
2019-06-07T18:35:30.975Z,25.70
2019-06-07T18:38:24.275Z,25.70
2019-06-07T18:41:07.095Z,25.60
2019-06-07T18:43:34.424Z,25.60
2019-06-07T18:46:00.966Z,25.60
2019-06-07T18:48:27.388Z,25.50
2019-06-07T18:50:54.713Z,25.50
2019-06-07T18:53:21.385Z,25.40
2019-06-07T18:55:48.031Z,25.40
2019-06-07T18:58:14.721Z,25.40
2019-06-07T19:00:41.448Z,25.30
2019-06-07T19:03:08.040Z,25.30
2019-06-07T19:05:34.696Z,25.20
2019-06-07T19:08:01.209Z,25.20
2019-06-07T19:10:27.958Z,25.10
2019-06-07T19:12:55.226Z,25.10
2019-06-07T19:15:23.137Z,25.10
2019-06-07T19:17:50.669Z,25.10
2019-06-07T19:20:19.620Z,25.00
2019-06-07T19:22:46.189Z,24.90
2019-06-07T19:25:13.499Z,24.90
2019-06-07T19:27:40.216Z,24.90
2019-06-07T19:30:07.847Z,24.80
2019-06-07T19:32:34.748Z,24.80
2019-06-07T19:35:01.655Z,24.70
2019-06-07T19:37:28.540Z,24.70
2019-06-07T19:39:55.839Z,24.60
2019-06-07T19:42:23.057Z,24.60
2019-06-07T19:44:54.543Z,24.60
2019-06-07T19:47:18.558Z,24.50
2019-06-07T19:49:45.133Z,24.50
2019-06-07T19:52:15.594Z,24.50
2019-06-07T19:54:42.180Z,24.40
2019-06-07T19:57:08.882Z,24.50
2019-06-07T19:59:35.400Z,24.40
2019-06-07T20:02:02.181Z,24.40
2019-06-07T20:04:29.398Z,24.40
2019-06-07T20:06:56.228Z,24.30
2019-06-07T20:09:23.525Z,24.20
2019-06-07T20:11:50.058Z,24.10
2019-06-07T20:14:16.678Z,24.10
2019-06-07T20:16:43.204Z,24.10
2019-06-07T20:19:09.824Z,24.10
2019-06-07T20:21:36.394Z,24.00
2019-06-07T20:24:22.827Z,24.00
2019-06-07T20:26:31.911Z,24.00
2019-06-07T20:28:59.279Z,24.00
2019-06-07T20:31:26.098Z,23.90
2019-06-07T20:33:52.805Z,23.80
2019-06-07T20:36:19.413Z,23.80
2019-06-07T20:38:46.034Z,23.80
2019-06-07T20:41:13.219Z,23.80
2019-06-07T20:43:39.848Z,23.70
2019-06-07T20:46:07.003Z,23.70
2019-06-07T20:48:34.878Z,23.60
2019-06-07T20:51:02.848Z,23.50
2019-06-07T20:53:29.642Z,23.50
2019-06-07T20:55:56.830Z,23.40
2019-06-07T20:58:23.548Z,23.30
2019-06-07T21:00:50.163Z,23.30
2019-06-07T21:03:17.133Z,23.30
2019-06-07T21:05:44.345Z,23.20
2019-06-07T21:08:12.967Z,23.10
2019-06-07T21:10:40.039Z,23.10
2019-06-07T21:13:08.014Z,23.00
2019-06-07T21:15:47.914Z,22.90
2019-06-07T21:18:04.974Z,22.90
2019-06-07T21:20:34.033Z,22.70
2019-06-07T21:23:00.696Z,22.70
2019-06-07T21:25:27.648Z,22.60
2019-06-07T21:27:54.185Z,22.60
2019-06-07T21:30:20.801Z,22.60
2019-06-07T21:32:47.456Z,22.50
2019-06-07T21:35:14.579Z,22.50
2019-06-07T21:37:42.721Z,22.50
2019-06-07T21:40:10.370Z,22.40
2019-06-07T21:42:37.367Z,22.40
2019-06-07T21:45:07.585Z,22.30
2019-06-07T21:47:34.122Z,22.30
2019-06-07T21:50:02.463Z,22.20
2019-06-07T21:52:28.960Z,22.20
2019-06-07T21:54:55.530Z,22.10
2019-06-07T21:57:22.146Z,22.10
2019-06-07T21:59:48.719Z,22.10
2019-06-07T22:02:15.267Z,22.10
2019-06-07T22:04:41.822Z,22.10
2019-06-07T22:07:09.452Z,22.10
2019-06-07T22:09:36.419Z,22.10
2019-06-07T22:12:04.483Z,22.20
2019-06-07T22:14:31.245Z,22.20
2019-06-07T22:16:57.697Z,22.20
2019-06-07T22:19:24.161Z,22.30
2019-06-07T22:22:02.167Z,22.30
2019-06-07T22:24:19.365Z,22.40
2019-06-07T22:26:46.022Z,22.40
2019-06-07T22:29:12.632Z,22.30
2019-06-07T22:31:39.143Z,22.20
2019-06-07T22:34:06.777Z,22.20
2019-06-07T22:36:33.659Z,22.20
2019-06-07T22:39:00.073Z,22.10
2019-06-07T22:41:26.689Z,22.10
2019-06-07T22:43:53.627Z,22.10
2019-06-07T22:46:33.528Z,22.10
2019-06-07T22:48:49.721Z,22.10
2019-06-07T22:51:16.463Z,22.10
2019-06-07T22:53:43.503Z,22.10
2019-06-07T22:56:12.019Z,22.10
2019-06-07T22:58:38.685Z,22.10
2019-06-07T23:01:05.135Z,22.10
2019-06-07T23:03:31.977Z,22.10
2019-06-07T23:05:58.543Z,22.00
2019-06-07T23:08:25.080Z,21.90
2019-06-07T23:10:51.571Z,21.90
2019-06-07T23:13:18.137Z,21.90
2019-06-07T23:15:44.689Z,21.90
2019-06-07T23:18:11.438Z,21.90
2019-06-07T23:20:38.580Z,21.90
2019-06-07T23:23:05.183Z,21.90
2019-06-07T23:25:32.161Z,21.80
2019-06-07T23:27:58.923Z,21.70
2019-06-07T23:30:25.633Z,21.80
2019-06-07T23:32:52.137Z,21.80
2019-06-07T23:35:19.103Z,21.80
2019-06-07T23:37:45.525Z,21.70
2019-06-07T23:40:13.245Z,21.70
2019-06-07T23:42:40.302Z,21.80
2019-06-07T23:45:07.315Z,21.70
2019-06-07T23:47:33.719Z,21.70
2019-06-07T23:50:00.270Z,21.70
2019-06-07T23:52:26.793Z,21.60
2019-06-07T23:54:53.200Z,21.50
2019-06-07T23:57:21.002Z,21.50
2019-06-07T23:59:47.997Z,21.50
